createdAt,value
2022-08-03T00:00:24.055Z,22.70
2022-08-03T00:02:51.033Z,22.60
2022-08-03T00:05:17.835Z,22.60
2022-08-03T00:07:44.533Z,22.70
2022-08-03T00:10:12.571Z,22.50
2022-08-03T00:12:39.630Z,22.60
2022-08-03T00:15:08.336Z,22.60
2022-08-03T00:17:52.882Z,22.50
2022-08-03T00:20:21.550Z,22.60
2022-08-03T00:22:48.684Z,22.50
2022-08-03T00:25:15.705Z,22.40
2022-08-03T00:27:42.359Z,22.40
2022-08-03T00:30:09.551Z,22.40
2022-08-03T00:32:36.258Z,22.30
2022-08-03T00:35:08.416Z,22.30
2022-08-03T00:37:41.747Z,22.20
2022-08-03T00:40:13.991Z,22.10
2022-08-03T00:42:53.754Z,22.10
2022-08-03T00:45:29.187Z,22.10
2022-08-03T00:47:56.592Z,22.10
2022-08-03T00:50:25.082Z,22.10
2022-08-03T00:52:53.883Z,22.10
2022-08-03T00:55:20.664Z,22.10
2022-08-03T00:57:47.762Z,22.10
2022-08-03T01:00:18.473Z,22.10
2022-08-03T01:02:45.281Z,22.00
2022-08-03T01:05:12.788Z,22.00
2022-08-03T01:07:52.671Z,21.90
2022-08-03T01:10:29.723Z,21.80
2022-08-03T01:14:02.059Z,21.60
2022-08-03T01:16:05.096Z,21.60
2022-08-03T01:19:31.459Z,21.60
2022-08-03T01:22:25.681Z,21.50
2022-08-03T01:25:07.408Z,21.40
2022-08-03T01:27:57.319Z,21.30
2022-08-03T01:30:29.893Z,21.40
2022-08-03T01:33:03.712Z,21.40
2022-08-03T01:35:46.135Z,21.40
2022-08-03T01:38:18.194Z,21.40
2022-08-03T01:40:47.056Z,21.40
2022-08-03T01:44:03.078Z,21.30
2022-08-03T01:46:07.351Z,21.10
2022-08-03T01:48:36.718Z,21.10
2022-08-03T01:51:04.565Z,21.10
2022-08-03T01:53:33.745Z,21.10
2022-08-03T01:56:02.360Z,21.20
2022-08-03T01:58:30.639Z,21.10
2022-08-03T02:01:01.101Z,21.00
2022-08-03T02:03:31.673Z,20.90
2022-08-03T02:06:56.840Z,20.90
2022-08-03T02:08:51.357Z,20.90
2022-08-03T02:11:18.078Z,20.90
2022-08-03T02:13:47.806Z,20.90
2022-08-03T02:16:14.768Z,20.90
2022-08-03T02:18:42.837Z,20.90
2022-08-03T02:21:11.899Z,20.80
2022-08-03T02:23:59.105Z,20.60
2022-08-03T02:26:29.546Z,20.60
2022-08-03T02:28:59.284Z,20.60
2022-08-03T02:31:30.678Z,20.70
2022-08-03T02:34:02.134Z,20.60
2022-08-03T02:36:31.873Z,20.70
2022-08-03T02:39:00.718Z,20.70
2022-08-03T02:41:41.173Z,20.70
2022-08-03T02:44:10.767Z,20.60
2022-08-03T02:46:45.226Z,20.50
2022-08-03T02:49:50.941Z,20.50
2022-08-03T02:52:02.546Z,20.60
2022-08-03T02:54:30.571Z,20.60
2022-08-03T02:56:58.807Z,20.50
2022-08-03T02:59:27.568Z,20.50
2022-08-03T03:01:55.576Z,20.50
2022-08-03T03:04:27.565Z,20.40
2022-08-03T03:07:01.911Z,20.30
2022-08-03T03:09:40.353Z,20.30
2022-08-03T03:12:10.792Z,20.30
2022-08-03T03:14:38.018Z,20.40
2022-08-03T03:17:07.159Z,20.40
2022-08-03T03:19:35.060Z,20.50
2022-08-03T03:22:03.508Z,20.50
2022-08-03T03:24:30.579Z,20.40
2022-08-03T03:26:58.361Z,20.30
2022-08-03T03:29:25.494Z,20.20
2022-08-03T03:31:53.070Z,20.20
2022-08-03T03:34:20.592Z,20.20
2022-08-03T03:36:48.183Z,20.00
2022-08-03T03:39:16.015Z,20.00
2022-08-03T03:41:43.477Z,20.00
2022-08-03T03:44:10.386Z,19.90
2022-08-03T03:46:38.783Z,19.90
2022-08-03T03:49:07.355Z,19.90
2022-08-03T03:51:34.529Z,19.80
2022-08-03T03:54:04.099Z,19.80
2022-08-03T03:56:30.759Z,19.90
2022-08-03T03:58:57.435Z,19.90
2022-08-03T04:01:24.216Z,19.90
2022-08-03T04:03:51.011Z,19.90
2022-08-03T04:06:37.802Z,19.90
2022-08-03T04:09:23.038Z,19.80
2022-08-03T04:11:58.525Z,19.80
2022-08-03T04:14:28.824Z,19.70
2022-08-03T04:17:04.802Z,19.60
2022-08-03T04:19:37.003Z,19.70
2022-08-03T04:22:10.076Z,19.80
2022-08-03T04:24:43.137Z,19.70
2022-08-03T04:27:12.736Z,19.70
2022-08-03T04:29:48.095Z,19.50
2022-08-03T04:32:16.852Z,19.50
2022-08-03T04:34:44.206Z,19.60
2022-08-03T04:37:43.095Z,19.60
2022-08-03T04:40:14.594Z,19.50
2022-08-03T04:42:43.699Z,19.60
2022-08-03T04:45:13.163Z,19.50
2022-08-03T04:47:40.810Z,19.60
2022-08-03T04:50:12.467Z,19.70
2022-08-03T04:52:40.409Z,19.60
2022-08-03T04:55:07.643Z,19.60
2022-08-03T04:57:34.387Z,19.60
2022-08-03T05:00:03.613Z,19.60
2022-08-03T05:02:31.805Z,19.70
2022-08-03T05:04:59.586Z,19.80
2022-08-03T05:07:26.332Z,19.70
2022-08-03T05:10:03.611Z,19.60
2022-08-03T05:12:32.693Z,19.60
2022-08-03T05:15:00.320Z,19.70
2022-08-03T05:17:27.364Z,19.70
2022-08-03T05:19:55.052Z,19.70
2022-08-03T05:22:23.095Z,19.70
2022-08-03T05:24:50.009Z,19.70
2022-08-03T05:27:19.638Z,19.70
2022-08-03T05:29:47.464Z,19.70
2022-08-03T05:32:14.479Z,19.70
2022-08-03T05:34:41.632Z,19.70
2022-08-03T05:37:08.435Z,19.80
2022-08-03T05:39:36.056Z,19.80
2022-08-03T05:42:03.296Z,19.90
2022-08-03T05:44:31.606Z,19.80
2022-08-03T05:46:59.221Z,19.90
2022-08-03T05:49:25.992Z,19.80
2022-08-03T05:52:10.233Z,19.90
2022-08-03T05:54:55.841Z,20.00
2022-08-03T05:57:23.716Z,20.10
2022-08-03T05:59:53.857Z,20.20
2022-08-03T06:02:24.656Z,20.40
2022-08-03T06:04:51.307Z,20.60
2022-08-03T06:07:18.557Z,20.80
2022-08-03T06:10:34.212Z,20.90
2022-08-03T06:12:32.180Z,21.00
2022-08-03T06:14:58.837Z,21.30
2022-08-03T06:17:25.636Z,21.20
2022-08-03T06:19:53.909Z,21.50
2022-08-03T06:22:20.688Z,21.70
2022-08-03T06:24:53.589Z,21.80
2022-08-03T06:27:21.310Z,21.90
2022-08-03T06:30:04.190Z,21.80
2022-08-03T06:32:30.857Z,22.10
2022-08-03T06:34:57.553Z,22.10
2022-08-03T06:37:24.551Z,22.20
2022-08-03T06:39:51.212Z,22.40
2022-08-03T06:42:18.168Z,22.50
2022-08-03T06:44:47.333Z,22.80
2022-08-03T06:47:14.006Z,22.80
2022-08-03T06:49:41.654Z,22.90
2022-08-03T06:52:08.378Z,22.90
2022-08-03T06:55:35.055Z,23.10
2022-08-03T06:58:09.256Z,23.40
2022-08-03T07:00:36.019Z,23.10
2022-08-03T07:03:03.421Z,23.30
2022-08-03T07:05:32.676Z,23.50
2022-08-03T07:08:01.796Z,23.70
2022-08-03T07:10:28.749Z,24.00
2022-08-03T07:12:56.909Z,24.10
2022-08-03T07:15:55.049Z,24.20
2022-08-03T07:18:11.032Z,24.10
2022-08-03T07:20:37.803Z,24.40
2022-08-03T07:23:04.473Z,24.50
2022-08-03T07:25:31.280Z,24.50
2022-08-03T07:27:58.081Z,24.70
2022-08-03T07:30:25.133Z,24.90
2022-08-03T07:32:51.816Z,25.10
2022-08-03T07:35:25.082Z,25.30
2022-08-03T07:37:54.615Z,25.50
2022-08-03T07:40:22.984Z,25.70
2022-08-03T07:42:53.209Z,25.80
2022-08-03T07:45:23.259Z,25.70
2022-08-03T07:47:53.468Z,25.80
2022-08-03T07:50:20.890Z,26.20
2022-08-03T07:52:47.971Z,26.50
2022-08-03T07:55:15.279Z,26.40
2022-08-03T07:57:42.397Z,26.50
2022-08-03T08:00:16.645Z,26.60
2022-08-03T08:02:44.393Z,26.80
2022-08-03T08:05:11.542Z,27.00
2022-08-03T08:07:38.816Z,27.00
2022-08-03T08:10:06.993Z,27.10
2022-08-03T08:12:33.679Z,27.20
2022-08-03T08:15:00.396Z,26.70
2022-08-03T08:17:27.394Z,27.10
2022-08-03T08:19:54.437Z,27.20
2022-08-03T08:22:29.947Z,27.50
2022-08-03T08:25:01.213Z,27.70
2022-08-03T08:27:28.498Z,27.90
2022-08-03T08:30:21.539Z,28.00
2022-08-03T08:32:49.550Z,28.40
2022-08-03T08:35:17.781Z,28.70
2022-08-03T08:37:51.275Z,28.90
2022-08-03T08:40:21.774Z,28.80
2022-08-03T08:42:58.286Z,28.70
2022-08-03T08:45:26.420Z,29.20
2022-08-03T08:48:00.993Z,29.30
2022-08-03T08:50:30.893Z,29.50
2022-08-03T08:53:02.035Z,29.80
2022-08-03T08:55:29.623Z,30.10
2022-08-03T08:58:20.855Z,30.10
2022-08-03T09:00:48.476Z,30.20
2022-08-03T09:03:22.748Z,30.20
2022-08-03T09:05:56.719Z,30.30
2022-08-03T09:08:23.602Z,30.60
2022-08-03T09:10:50.389Z,30.70
2022-08-03T09:13:17.218Z,30.50
2022-08-03T09:15:52.706Z,30.50
2022-08-03T09:18:32.905Z,30.30
2022-08-03T09:21:32.222Z,30.50
2022-08-03T09:24:03.304Z,30.70
2022-08-03T09:26:32.464Z,31.00
2022-08-03T09:29:06.948Z,31.30
2022-08-03T09:31:43.720Z,31.20
2022-08-03T09:34:14.271Z,31.00
2022-08-03T09:36:51.530Z,30.80
2022-08-03T09:39:41.180Z,30.90
2022-08-03T09:42:14.743Z,31.00
2022-08-03T09:44:46.825Z,31.30
2022-08-03T09:47:28.512Z,31.40
2022-08-03T09:50:09.111Z,31.20
2022-08-03T09:52:49.662Z,31.60
2022-08-03T09:55:23.853Z,31.40
2022-08-03T09:58:10.209Z,31.30
2022-08-03T10:00:54.790Z,31.60
2022-08-03T10:03:22.723Z,31.80
2022-08-03T10:05:49.521Z,31.90
2022-08-03T10:08:18.083Z,31.70
2022-08-03T10:10:46.548Z,31.70
2022-08-03T10:13:18.739Z,31.60
2022-08-03T10:16:23.785Z,31.90
2022-08-03T10:18:33.478Z,31.90
2022-08-03T10:21:10.649Z,31.90
2022-08-03T10:23:39.540Z,31.80
2022-08-03T10:26:08.068Z,31.70
2022-08-03T10:28:44.739Z,31.90
2022-08-03T10:31:13.858Z,31.90
2022-08-03T10:33:52.044Z,31.70
2022-08-03T10:36:24.318Z,31.80
2022-08-03T10:38:53.724Z,31.90
2022-08-03T10:41:23.176Z,32.10
2022-08-03T10:44:10.090Z,32.10
2022-08-03T10:46:44.461Z,32.30
2022-08-03T10:49:25.470Z,32.20
2022-08-03T10:52:01.012Z,32.10
2022-08-03T10:54:58.234Z,32.20
2022-08-03T10:57:45.798Z,32.40
2022-08-03T11:00:24.956Z,32.60
2022-08-03T11:03:17.563Z,32.50
2022-08-03T11:05:49.264Z,32.20
2022-08-03T11:08:19.322Z,32.40
2022-08-03T11:10:46.583Z,32.60
2022-08-03T11:13:18.490Z,32.70
2022-08-03T11:15:49.815Z,32.60
2022-08-03T11:18:16.935Z,32.50
2022-08-03T11:20:53.483Z,32.60
2022-08-03T11:24:03.240Z,32.70
2022-08-03T11:26:28.825Z,32.50
2022-08-03T11:29:31.104Z,32.30
2022-08-03T11:31:58.107Z,32.60
2022-08-03T11:34:25.578Z,32.60
2022-08-03T11:37:20.323Z,32.70
2022-08-03T11:39:49.850Z,32.80
2022-08-03T11:42:38.852Z,33.10
2022-08-03T11:45:07.667Z,33.20
2022-08-03T11:47:37.337Z,33.10
2022-08-03T11:50:19.165Z,33.20
2022-08-03T11:52:45.922Z,33.30
2022-08-03T11:55:14.372Z,33.40
2022-08-03T11:59:01.615Z,33.60
2022-08-03T12:00:29.609Z,33.50
2022-08-03T12:02:58.610Z,33.30
2022-08-03T12:05:39.931Z,33.40
2022-08-03T12:08:08.289Z,33.20
2022-08-03T12:10:35.677Z,33.50
2022-08-03T12:14:45.121Z,33.50
2022-08-03T12:15:59.053Z,33.70
2022-08-03T12:18:25.819Z,33.70
2022-08-03T12:20:53.336Z,33.80
2022-08-03T12:23:20.255Z,34.00
2022-08-03T12:25:48.139Z,33.90
2022-08-03T12:28:36.231Z,33.70
2022-08-03T12:31:07.430Z,34.00
2022-08-03T12:33:54.903Z,34.00
2022-08-03T12:36:21.794Z,33.40
2022-08-03T12:38:59.179Z,33.40
2022-08-03T12:41:34.059Z,33.30
2022-08-03T12:44:05.400Z,33.30
2022-08-03T12:46:47.473Z,33.00
2022-08-03T12:49:17.301Z,33.40
2022-08-03T12:51:43.995Z,33.70
2022-08-03T12:54:17.515Z,33.70
2022-08-03T12:57:07.220Z,33.60
2022-08-03T12:59:40.547Z,33.50
2022-08-03T13:02:20.332Z,33.50
2022-08-03T13:04:52.384Z,33.40
2022-08-03T13:07:20.012Z,33.60
2022-08-03T13:09:46.831Z,33.40
2022-08-03T13:12:18.810Z,33.20
2022-08-03T13:14:47.825Z,33.50
2022-08-03T13:17:16.737Z,33.50
2022-08-03T13:19:45.134Z,33.20
2022-08-03T13:22:13.845Z,33.20
2022-08-03T13:24:40.916Z,33.50
2022-08-03T13:28:00.055Z,33.60
2022-08-03T13:29:55.159Z,33.70
2022-08-03T13:32:22.479Z,33.50
2022-08-03T13:34:49.388Z,33.50
2022-08-03T13:37:16.240Z,33.70
2022-08-03T13:39:57.899Z,33.90
2022-08-03T13:42:32.423Z,34.10
2022-08-03T13:45:00.307Z,34.30
2022-08-03T13:47:27.724Z,34.20
2022-08-03T13:50:01.566Z,34.00
2022-08-03T13:52:34.456Z,33.90
2022-08-03T13:55:03.186Z,33.70
2022-08-03T13:58:02.399Z,33.80
2022-08-03T14:00:27.265Z,33.70
2022-08-03T14:03:02.847Z,34.00
2022-08-03T14:05:31.940Z,34.10
2022-08-03T14:08:04.265Z,33.90
2022-08-03T14:10:36.537Z,34.00
2022-08-03T14:13:04.434Z,34.00
2022-08-03T14:15:31.709Z,34.10
2022-08-03T14:17:58.991Z,33.70
2022-08-03T14:20:37.849Z,33.80
2022-08-03T14:23:14.312Z,33.90
2022-08-03T14:25:43.431Z,33.90
2022-08-03T14:28:18.246Z,33.90
2022-08-03T14:30:45.144Z,33.90
2022-08-03T14:33:11.864Z,34.00
2022-08-03T14:35:38.655Z,33.90
2022-08-03T14:38:05.870Z,33.80
2022-08-03T14:40:32.707Z,33.70
2022-08-03T14:42:59.430Z,33.70
2022-08-03T14:45:26.168Z,33.70
2022-08-03T14:50:10.424Z,33.40
2022-08-03T14:50:45.480Z,33.50
2022-08-03T14:53:14.002Z,33.80
2022-08-03T14:55:49.556Z,33.80
2022-08-03T14:58:27.936Z,33.70
2022-08-03T15:00:55.921Z,33.70
2022-08-03T15:03:24.794Z,33.70
2022-08-03T15:05:56.797Z,33.70
2022-08-03T15:08:25.182Z,33.80
2022-08-03T15:10:53.168Z,34.00
2022-08-03T15:13:20.306Z,33.90
2022-08-03T15:15:47.657Z,33.90
2022-08-03T15:18:14.388Z,33.60
2022-08-03T15:20:45.852Z,33.70
2022-08-03T15:23:14.539Z,33.70
2022-08-03T15:26:07.030Z,33.80
2022-08-03T15:28:29.190Z,33.90
2022-08-03T15:30:55.867Z,33.90
2022-08-03T15:33:22.604Z,33.90
2022-08-03T15:35:49.808Z,33.80
2022-08-03T15:38:16.656Z,33.90
2022-08-03T15:40:43.461Z,34.10
2022-08-03T15:43:10.197Z,34.20
2022-08-03T15:45:37.322Z,34.40
2022-08-03T15:48:07.364Z,34.70
2022-08-03T15:50:34.276Z,34.60
2022-08-03T15:53:00.971Z,34.50
2022-08-03T15:55:27.831Z,34.40
2022-08-03T15:59:09.863Z,34.40
2022-08-03T16:00:42.780Z,34.50
2022-08-03T16:03:10.305Z,34.50
2022-08-03T16:05:37.239Z,34.60
2022-08-03T16:08:05.658Z,34.70
2022-08-03T16:10:33.845Z,34.20
2022-08-03T16:13:00.663Z,34.40
2022-08-03T16:15:27.886Z,34.20
2022-08-03T16:17:54.735Z,34.40
2022-08-03T16:20:30.791Z,34.30
2022-08-03T16:23:05.524Z,34.30
2022-08-03T16:25:39.943Z,34.30
2022-08-03T16:28:13.103Z,34.50
2022-08-03T16:30:42.366Z,34.50
2022-08-03T16:33:10.045Z,34.50
2022-08-03T16:35:36.852Z,34.40
2022-08-03T16:38:09.607Z,34.10
2022-08-03T16:40:37.512Z,34.10
2022-08-03T16:43:18.934Z,34.20
2022-08-03T16:45:47.013Z,34.20
2022-08-03T16:48:14.470Z,34.20
2022-08-03T16:50:41.546Z,34.20
2022-08-03T16:53:09.697Z,34.30
2022-08-03T16:55:48.900Z,34.20
2022-08-03T16:58:34.617Z,33.90
2022-08-03T17:01:22.381Z,34.00
2022-08-03T17:04:04.699Z,33.90
2022-08-03T17:06:35.724Z,33.80
2022-08-03T17:09:12.054Z,33.80
2022-08-03T17:11:44.014Z,33.90
2022-08-03T17:14:15.701Z,33.90
2022-08-03T17:16:52.059Z,33.90
2022-08-03T17:19:21.951Z,34.00
2022-08-03T17:22:04.380Z,34.00
2022-08-03T17:24:41.523Z,33.90
2022-08-03T17:28:41.354Z,33.60
2022-08-03T17:30:12.310Z,33.70
2022-08-03T17:32:56.758Z,33.60
2022-08-03T17:35:36.674Z,33.50
2022-08-03T17:38:08.911Z,33.40
2022-08-03T17:40:40.041Z,33.30
2022-08-03T17:44:14.107Z,33.50
2022-08-03T17:46:10.626Z,33.50
2022-08-03T17:48:41.476Z,33.40
2022-08-03T17:51:35.544Z,33.50
2022-08-03T17:54:19.956Z,33.60
2022-08-03T17:57:21.855Z,33.50
2022-08-03T18:00:27.617Z,33.50
2022-08-03T18:03:20.906Z,33.40
2022-08-03T18:06:11.406Z,33.40
2022-08-03T18:08:55.219Z,33.40
2022-08-03T18:11:24.073Z,33.30
2022-08-03T18:14:05.793Z,33.30
2022-08-03T18:17:01.287Z,33.30
2022-08-03T18:20:02.525Z,33.30
2022-08-03T18:22:19.920Z,33.20
2022-08-03T18:24:49.526Z,33.00
2022-08-03T18:27:17.091Z,32.90
2022-08-03T18:29:46.921Z,33.00
2022-08-03T18:32:25.394Z,32.90
2022-08-03T18:34:55.813Z,32.70
2022-08-03T18:37:25.503Z,32.60
2022-08-03T18:39:55.789Z,32.60
2022-08-03T18:42:26.352Z,32.40
2022-08-03T18:44:56.349Z,32.30
2022-08-03T18:47:51.592Z,32.30
2022-08-03T18:50:30.808Z,32.20
2022-08-03T18:53:15.654Z,32.10
2022-08-03T18:56:01.201Z,32.10
2022-08-03T18:58:45.121Z,32.00
2022-08-03T19:02:00.361Z,32.00
2022-08-03T19:04:33.357Z,31.90
2022-08-03T19:07:09.420Z,31.80
2022-08-03T19:09:57.003Z,31.80
2022-08-03T19:12:39.763Z,31.80
2022-08-03T19:15:10.551Z,31.70
2022-08-03T19:17:50.101Z,31.50
2022-08-03T19:20:25.307Z,31.50
2022-08-03T19:22:53.449Z,31.40
2022-08-03T19:25:20.394Z,31.40
2022-08-03T19:28:06.136Z,31.40
2022-08-03T19:33:26.624Z,31.20
2022-08-03T19:35:58.130Z,31.10
2022-08-03T19:38:29.810Z,30.90
2022-08-03T19:41:00.060Z,30.80
2022-08-03T19:43:53.040Z,30.70
2022-08-03T19:46:22.309Z,30.70
2022-08-03T19:49:03.122Z,30.70
2022-08-03T19:52:02.592Z,30.70
2022-08-03T19:54:29.480Z,30.50
2022-08-03T19:56:58.445Z,30.40
2022-08-03T19:59:26.466Z,30.40
2022-08-03T20:01:53.894Z,30.30
2022-08-03T20:04:21.956Z,30.30
2022-08-03T20:06:50.042Z,30.20
2022-08-03T20:09:18.507Z,30.20
2022-08-03T20:11:48.139Z,30.20
2022-08-03T20:14:20.723Z,30.00
2022-08-03T20:16:53.573Z,30.00
2022-08-03T20:19:20.547Z,29.90
2022-08-03T20:21:49.915Z,29.90
2022-08-03T20:24:26.234Z,29.80
2022-08-03T20:26:55.025Z,29.60
2022-08-03T20:30:06.553Z,29.60
2022-08-03T20:32:34.717Z,29.60
2022-08-03T20:35:01.565Z,29.60
2022-08-03T20:37:29.852Z,29.60
2022-08-03T20:39:58.027Z,29.60
2022-08-03T20:42:25.085Z,29.30
2022-08-03T20:45:05.601Z,29.30
2022-08-03T20:47:35.986Z,29.20
2022-08-03T20:50:07.616Z,29.10
2022-08-03T20:52:43.762Z,29.10
2022-08-03T20:55:18.682Z,29.00
2022-08-03T21:00:34.914Z,28.70
2022-08-03T21:03:01.659Z,28.60
2022-08-03T21:05:30.973Z,28.60
2022-08-03T21:08:16.110Z,28.60
2022-08-03T21:10:44.074Z,28.30
2022-08-03T21:13:07.827Z,28.80
2022-08-03T21:13:12.763Z,31.30
2022-08-03T21:13:23.306Z,28.30
2022-08-03T21:16:02.560Z,28.20
2022-08-03T21:18:48.915Z,28.30
2022-08-03T21:21:18.968Z,28.30
2022-08-03T21:23:49.878Z,28.10
2022-08-03T21:26:23.359Z,28.10
2022-08-03T21:28:53.566Z,28.20
2022-08-03T21:31:24.543Z,28.20
2022-08-03T21:33:59.434Z,28.10
2022-08-03T21:36:27.641Z,28.00
2022-08-03T21:38:57.236Z,27.90
2022-08-03T21:41:31.125Z,27.90
2022-08-03T21:43:58.676Z,27.80
2022-08-03T21:46:27.115Z,27.80
2022-08-03T21:48:56.784Z,27.70
2022-08-03T21:51:43.560Z,27.70
2022-08-03T21:54:12.067Z,27.60
2022-08-03T21:56:45.549Z,27.60
2022-08-03T21:59:18.524Z,27.60
2022-08-03T22:01:48.891Z,27.60
2022-08-03T22:04:50.337Z,27.60
2022-08-03T22:07:08.112Z,27.50
2022-08-03T22:09:35.936Z,27.50
2022-08-03T22:12:03.120Z,27.40
2022-08-03T22:14:33.239Z,27.30
2022-08-03T22:17:03.505Z,27.20
2022-08-03T22:19:33.050Z,27.20
2022-08-03T22:22:01.462Z,27.10
2022-08-03T22:24:31.950Z,27.10
2022-08-03T22:27:19.926Z,27.10
2022-08-03T22:29:48.658Z,27.10
2022-08-03T22:32:15.408Z,27.00
2022-08-03T22:34:45.462Z,26.90
2022-08-03T22:37:15.053Z,26.90
2022-08-03T22:39:43.916Z,26.80
2022-08-03T22:42:11.124Z,26.80
2022-08-03T22:44:37.891Z,26.70
2022-08-03T22:47:06.968Z,26.60
2022-08-03T22:49:35.205Z,26.50
2022-08-03T22:52:03.026Z,26.50
2022-08-03T22:54:32.733Z,26.50
2022-08-03T22:56:59.658Z,26.60
2022-08-03T22:59:39.876Z,26.40
2022-08-03T23:02:21.014Z,26.40
2022-08-03T23:04:54.973Z,26.30
2022-08-03T23:07:29.307Z,26.30
2022-08-03T23:09:57.762Z,26.30
2022-08-03T23:12:25.078Z,26.30
2022-08-03T23:14:56.111Z,26.20
2022-08-03T23:17:24.774Z,26.10
2022-08-03T23:19:52.712Z,26.00
2022-08-03T23:22:29.546Z,25.90
2022-08-03T23:24:58.584Z,25.90
2022-08-03T23:27:27.334Z,25.70
2022-08-03T23:29:54.189Z,25.60
2022-08-03T23:32:21.247Z,25.50
2022-08-03T23:35:08.707Z,25.50
2022-08-03T23:38:04.117Z,25.40
2022-08-03T23:40:30.797Z,25.40
2022-08-03T23:42:58.326Z,25.50
2022-08-03T23:45:29.749Z,25.40
2022-08-03T23:47:56.530Z,25.50
2022-08-03T23:50:23.882Z,25.40
2022-08-03T23:53:16.692Z,25.40
2022-08-03T23:56:06.791Z,25.40
2022-08-03T23:58:52.196Z,25.50
